sensor_id;sensor_type;location;lat;lon;timestamp;temperature;humidity
15690;DHT22;7945;48.816;11.506;2023-04-24T00:00:53;14.20;99.90
15690;DHT22;7945;48.816;11.506;2023-04-24T00:03:22;14.20;99.90
15690;DHT22;7945;48.816;11.506;2023-04-24T00:05:49;14.10;99.90
15690;DHT22;7945;48.816;11.506;2023-04-24T00:08:18;14.10;99.90
15690;DHT22;7945;48.816;11.506;2023-04-24T00:10:45;14.10;99.90
15690;DHT22;7945;48.816;11.506;2023-04-24T00:13:11;14.10;99.90
15690;DHT22;7945;48.816;11.506;2023-04-24T00:15:38;14.10;99.90
15690;DHT22;7945;48.816;11.506;2023-04-24T00:18:05;14.00;99.90
15690;DHT22;7945;48.816;11.506;2023-04-24T00:20:32;14.00;99.90
15690;DHT22;7945;48.816;11.506;2023-04-24T00:23:00;14.00;99.90
15690;DHT22;7945;48.816;11.506;2023-04-24T00:25:29;14.00;99.90
15690;DHT22;7945;48.816;11.506;2023-04-24T00:27:55;13.90;99.90
15690;DHT22;7945;48.816;11.506;2023-04-24T00:30:22;14.00;99.90
15690;DHT22;7945;48.816;11.506;2023-04-24T00:32:49;14.00;99.90
15690;DHT22;7945;48.816;11.506;2023-04-24T00:35:16;14.00;99.90
15690;DHT22;7945;48.816;11.506;2023-04-24T00:37:45;13.90;99.90
15690;DHT22;7945;48.816;11.506;2023-04-24T00:40:12;13.90;99.90
15690;DHT22;7945;48.816;11.506;2023-04-24T00:42:40;13.90;99.90
15690;DHT22;7945;48.816;11.506;2023-04-24T00:45:07;13.90;99.90
15690;DHT22;7945;48.816;11.506;2023-04-24T00:47:34;13.90;99.90
15690;DHT22;7945;48.816;11.506;2023-04-24T00:50:02;14.00;99.90
15690;DHT22;7945;48.816;11.506;2023-04-24T00:52:29;14.00;99.90
15690;DHT22;7945;48.816;11.506;2023-04-24T00:54:56;14.00;99.90
15690;DHT22;7945;48.816;11.506;2023-04-24T00:57:23;14.00;99.90
15690;DHT22;7945;48.816;11.506;2023-04-24T00:59:52;14.00;99.90
15690;DHT22;7945;48.816;11.506;2023-04-24T01:02:19;13.90;99.90
15690;DHT22;7945;48.816;11.506;2023-04-24T01:04:48;14.00;99.90
15690;DHT22;7945;48.816;11.506;2023-04-24T01:07:16;14.00;99.90
15690;DHT22;7945;48.816;11.506;2023-04-24T01:09:44;14.00;99.90
15690;DHT22;7945;48.816;11.506;2023-04-24T01:12:12;13.90;99.90
15690;DHT22;7945;48.816;11.506;2023-04-24T01:14:39;13.90;99.90
15690;DHT22;7945;48.816;11.506;2023-04-24T01:17:07;13.90;99.90
15690;DHT22;7945;48.816;11.506;2023-04-24T01:19:34;13.90;99.90
15690;DHT22;7945;48.816;11.506;2023-04-24T01:22:02;13.80;99.90
15690;DHT22;7945;48.816;11.506;2023-04-24T01:24:30;13.80;99.90
15690;DHT22;7945;48.816;11.506;2023-04-24T01:26:57;13.80;99.90
15690;DHT22;7945;48.816;11.506;2023-04-24T01:29:24;13.80;99.90
15690;DHT22;7945;48.816;11.506;2023-04-24T01:31:51;13.80;99.90
15690;DHT22;7945;48.816;11.506;2023-04-24T01:34:18;13.80;99.90
15690;DHT22;7945;48.816;11.506;2023-04-24T01:36:46;13.80;99.90
15690;DHT22;7945;48.816;11.506;2023-04-24T01:39:13;13.80;99.90
15690;DHT22;7945;48.816;11.506;2023-04-24T01:41:42;13.70;99.90
15690;DHT22;7945;48.816;11.506;2023-04-24T01:44:09;13.70;99.90
15690;DHT22;7945;48.816;11.506;2023-04-24T01:46:36;13.60;99.90
15690;DHT22;7945;48.816;11.506;2023-04-24T01:49:03;13.60;99.90
15690;DHT22;7945;48.816;11.506;2023-04-24T01:51:30;13.50;99.90
15690;DHT22;7945;48.816;11.506;2023-04-24T01:53:57;13.50;99.90
15690;DHT22;7945;48.816;11.506;2023-04-24T01:56:24;13.50;99.90
15690;DHT22;7945;48.816;11.506;2023-04-24T01:58:54;13.50;99.90
15690;DHT22;7945;48.816;11.506;2023-04-24T02:01:22;13.50;99.90
15690;DHT22;7945;48.816;11.506;2023-04-24T02:03:50;13.50;99.90
15690;DHT22;7945;48.816;11.506;2023-04-24T02:06:16;13.40;99.90
15690;DHT22;7945;48.816;11.506;2023-04-24T02:08:43;13.40;99.90
15690;DHT22;7945;48.816;11.506;2023-04-24T02:11:10;13.40;99.90
15690;DHT22;7945;48.816;11.506;2023-04-24T02:13:37;13.40;99.90
15690;DHT22;7945;48.816;11.506;2023-04-24T02:16:05;13.40;99.90
15690;DHT22;7945;48.816;11.506;2023-04-24T02:18:32;13.40;99.90
15690;DHT22;7945;48.816;11.506;2023-04-24T02:20:58;13.40;99.90
15690;DHT22;7945;48.816;11.506;2023-04-24T02:23:25;13.40;99.90
15690;DHT22;7945;48.816;11.506;2023-04-24T02:25:52;13.30;99.90
15690;DHT22;7945;48.816;11.506;2023-04-24T02:28:19;13.30;99.90
15690;DHT22;7945;48.816;11.506;2023-04-24T02:30:46;13.30;99.90
15690;DHT22;7945;48.816;11.506;2023-04-24T02:33:14;13.40;99.90
15690;DHT22;7945;48.816;11.506;2023-04-24T02:35:41;13.40;99.90
15690;DHT22;7945;48.816;11.506;2023-04-24T02:38:08;13.40;99.90
15690;DHT22;7945;48.816;11.506;2023-04-24T02:40:34;13.40;99.90
15690;DHT22;7945;48.816;11.506;2023-04-24T02:43:01;13.40;99.90
15690;DHT22;7945;48.816;11.506;2023-04-24T02:45:28;13.40;99.90
15690;DHT22;7945;48.816;11.506;2023-04-24T02:47:54;13.40;99.90
15690;DHT22;7945;48.816;11.506;2023-04-24T02:50:22;13.40;99.90
15690;DHT22;7945;48.816;11.506;2023-04-24T02:52:49;13.40;99.90
15690;DHT22;7945;48.816;11.506;2023-04-24T02:55:16;13.40;99.90
15690;DHT22;7945;48.816;11.506;2023-04-24T02:57:43;13.40;99.90
15690;DHT22;7945;48.816;11.506;2023-04-24T03:00:10;13.40;99.90
15690;DHT22;7945;48.816;11.506;2023-04-24T03:02:37;13.40;99.90
15690;DHT22;7945;48.816;11.506;2023-04-24T03:05:04;13.40;99.90
15690;DHT22;7945;48.816;11.506;2023-04-24T03:07:34;13.40;99.90
15690;DHT22;7945;48.816;11.506;2023-04-24T03:10:01;13.40;99.90
15690;DHT22;7945;48.816;11.506;2023-04-24T03:12:27;13.40;99.90
15690;DHT22;7945;48.816;11.506;2023-04-24T03:14:54;13.30;99.90
15690;DHT22;7945;48.816;11.506;2023-04-24T03:17:21;13.30;99.90
15690;DHT22;7945;48.816;11.506;2023-04-24T03:19:47;13.30;99.90
15690;DHT22;7945;48.816;11.506;2023-04-24T03:22:14;13.20;99.90
15690;DHT22;7945;48.816;11.506;2023-04-24T03:24:42;13.20;99.90
15690;DHT22;7945;48.816;11.506;2023-04-24T03:27:09;13.20;99.90
15690;DHT22;7945;48.816;11.506;2023-04-24T03:29:35;13.20;99.90
15690;DHT22;7945;48.816;11.506;2023-04-24T03:32:02;13.20;99.90
15690;DHT22;7945;48.816;11.506;2023-04-24T03:34:29;13.20;99.90
15690;DHT22;7945;48.816;11.506;2023-04-24T03:36:56;13.20;99.90
15690;DHT22;7945;48.816;11.506;2023-04-24T03:39:22;13.10;99.90
15690;DHT22;7945;48.816;11.506;2023-04-24T03:41:52;13.10;99.90
15690;DHT22;7945;48.816;11.506;2023-04-24T03:44:18;13.00;99.90
15690;DHT22;7945;48.816;11.506;2023-04-24T03:46:45;13.00;99.90
15690;DHT22;7945;48.816;11.506;2023-04-24T03:49:12;13.00;99.90
15690;DHT22;7945;48.816;11.506;2023-04-24T03:51:38;13.00;99.90
15690;DHT22;7945;48.816;11.506;2023-04-24T03:54:05;13.10;99.90
15690;DHT22;7945;48.816;11.506;2023-04-24T03:56:32;13.10;99.90
15690;DHT22;7945;48.816;11.506;2023-04-24T03:59:00;13.10;99.90
15690;DHT22;7945;48.816;11.506;2023-04-24T04:01:27;13.00;99.90
15690;DHT22;7945;48.816;11.506;2023-04-24T04:03:54;12.90;99.90
15690;DHT22;7945;48.816;11.506;2023-04-24T04:06:21;12.90;99.90
15690;DHT22;7945;48.816;11.506;2023-04-24T04:08:48;12.90;99.90
15690;DHT22;7945;48.816;11.506;2023-04-24T04:11:14;12.90;99.90
15690;DHT22;7945;48.816;11.506;2023-04-24T04:13:41;12.90;99.90
15690;DHT22;7945;48.816;11.506;2023-04-24T04:16:10;12.90;99.90
15690;DHT22;7945;48.816;11.506;2023-04-24T04:18:36;12.90;99.90
15690;DHT22;7945;48.816;11.506;2023-04-24T04:21:03;12.80;99.90
15690;DHT22;7945;48.816;11.506;2023-04-24T04:23:30;12.80;99.90
15690;DHT22;7945;48.816;11.506;2023-04-24T04:25:57;12.80;99.90
15690;DHT22;7945;48.816;11.506;2023-04-24T04:28:24;12.80;99.90
15690;DHT22;7945;48.816;11.506;2023-04-24T04:30:52;12.80;99.90
15690;DHT22;7945;48.816;11.506;2023-04-24T04:33:20;12.80;99.90
15690;DHT22;7945;48.816;11.506;2023-04-24T04:35:47;12.70;99.90
15690;DHT22;7945;48.816;11.506;2023-04-24T04:38:15;12.80;99.90
15690;DHT22;7945;48.816;11.506;2023-04-24T04:40:42;12.80;99.90
15690;DHT22;7945;48.816;11.506;2023-04-24T04:43:09;12.80;99.90
15690;DHT22;7945;48.816;11.506;2023-04-24T04:45:36;12.80;99.90
15690;DHT22;7945;48.816;11.506;2023-04-24T04:48:04;12.80;99.90
15690;DHT22;7945;48.816;11.506;2023-04-24T04:50:34;12.70;99.90
15690;DHT22;7945;48.816;11.506;2023-04-24T04:53:00;12.80;99.90
15690;DHT22;7945;48.816;11.506;2023-04-24T04:55:27;12.80;99.90
15690;DHT22;7945;48.816;11.506;2023-04-24T04:57:54;12.80;99.90
15690;DHT22;7945;48.816;11.506;2023-04-24T05:00:22;12.80;99.90
15690;DHT22;7945;48.816;11.506;2023-04-24T05:02:50;12.80;99.90
15690;DHT22;7945;48.816;11.506;2023-04-24T05:05:17;12.80;99.90
15690;DHT22;7945;48.816;11.506;2023-04-24T05:07:45;12.80;99.90
15690;DHT22;7945;48.816;11.506;2023-04-24T05:10:12;12.80;99.90
15690;DHT22;7945;48.816;11.506;2023-04-24T05:12:39;12.70;99.90
15690;DHT22;7945;48.816;11.506;2023-04-24T05:15:06;12.70;99.90
15690;DHT22;7945;48.816;11.506;2023-04-24T05:17:33;12.70;99.90
15690;DHT22;7945;48.816;11.506;2023-04-24T05:20:00;12.70;99.90
15690;DHT22;7945;48.816;11.506;2023-04-24T05:22:28;12.70;99.90
15690;DHT22;7945;48.816;11.506;2023-04-24T05:24:56;12.70;99.90
15690;DHT22;7945;48.816;11.506;2023-04-24T05:27:23;12.70;99.90
15690;DHT22;7945;48.816;11.506;2023-04-24T05:29:49;12.70;99.90
15690;DHT22;7945;48.816;11.506;2023-04-24T05:32:16;12.70;99.90
15690;DHT22;7945;48.816;11.506;2023-04-24T05:34:43;12.70;99.90
15690;DHT22;7945;48.816;11.506;2023-04-24T05:37:10;12.70;99.90
15690;DHT22;7945;48.816;11.506;2023-04-24T05:39:37;12.70;99.90
15690;DHT22;7945;48.816;11.506;2023-04-24T05:42:05;12.70;99.90
15690;DHT22;7945;48.816;11.506;2023-04-24T05:44:32;12.70;99.90
15690;DHT22;7945;48.816;11.506;2023-04-24T05:46:58;12.80;99.90
15690;DHT22;7945;48.816;11.506;2023-04-24T05:49:26;12.90;99.90
15690;DHT22;7945;48.816;11.506;2023-04-24T05:51:52;12.90;99.90
15690;DHT22;7945;48.816;11.506;2023-04-24T05:54:19;12.80;99.90
15690;DHT22;7945;48.816;11.506;2023-04-24T05:56:46;12.80;99.90
15690;DHT22;7945;48.816;11.506;2023-04-24T05:59:14;12.80;99.90
15690;DHT22;7945;48.816;11.506;2023-04-24T06:01:41;12.80;99.90
15690;DHT22;7945;48.816;11.506;2023-04-24T06:04:07;12.80;99.90
15690;DHT22;7945;48.816;11.506;2023-04-24T06:06:35;12.80;99.90
15690;DHT22;7945;48.816;11.506;2023-04-24T06:09:02;12.80;99.90
15690;DHT22;7945;48.816;11.506;2023-04-24T06:11:29;12.80;99.90
15690;DHT22;7945;48.816;11.506;2023-04-24T06:15:21;12.80;99.90
15690;DHT22;7945;48.816;11.506;2023-04-24T06:17:48;12.80;99.90
15690;DHT22;7945;48.816;11.506;2023-04-24T06:20:14;12.80;99.90
15690;DHT22;7945;48.816;11.506;2023-04-24T06:22:41;12.80;99.90
15690;DHT22;7945;48.816;11.506;2023-04-24T06:25:08;12.80;99.90
15690;DHT22;7945;48.816;11.506;2023-04-24T06:27:35;12.80;99.90
15690;DHT22;7945;48.816;11.506;2023-04-24T06:30:02;12.80;99.90
15690;DHT22;7945;48.816;11.506;2023-04-24T06:32:30;12.80;99.90
15690;DHT22;7945;48.816;11.506;2023-04-24T06:34:57;12.80;99.90
15690;DHT22;7945;48.816;11.506;2023-04-24T06:37:23;12.90;99.90
15690;DHT22;7945;48.816;11.506;2023-04-24T06:39:50;12.90;99.90
15690;DHT22;7945;48.816;11.506;2023-04-24T06:42:17;12.90;99.90
15690;DHT22;7945;48.816;11.506;2023-04-24T06:44:46;12.90;99.90
15690;DHT22;7945;48.816;11.506;2023-04-24T06:47:12;13.00;99.90
15690;DHT22;7945;48.816;11.506;2023-04-24T06:49:41;13.00;99.90
15690;DHT22;7945;48.816;11.506;2023-04-24T06:52:08;13.00;99.90
15690;DHT22;7945;48.816;11.506;2023-04-24T06:54:35;13.00;99.90
15690;DHT22;7945;48.816;11.506;2023-04-24T06:57:02;13.00;99.90
15690;DHT22;7945;48.816;11.506;2023-04-24T06:59:29;13.10;99.90
15690;DHT22;7945;48.816;11.506;2023-04-24T07:01:56;13.20;99.90
15690;DHT22;7945;48.816;11.506;2023-04-24T07:04:23;13.30;99.90
15690;DHT22;7945;48.816;11.506;2023-04-24T07:06:52;13.40;99.90
15690;DHT22;7945;48.816;11.506;2023-04-24T07:09:19;13.30;99.90
15690;DHT22;7945;48.816;11.506;2023-04-24T07:11:47;13.40;99.90
15690;DHT22;7945;48.816;11.506;2023-04-24T07:14:14;13.40;99.90
15690;DHT22;7945;48.816;11.506;2023-04-24T07:16:41;13.40;99.90
15690;DHT22;7945;48.816;11.506;2023-04-24T07:19:08;13.30;99.90
15690;DHT22;7945;48.816;11.506;2023-04-24T07:21:35;13.30;99.90
15690;DHT22;7945;48.816;11.506;2023-04-24T07:24:03;13.30;99.90
15690;DHT22;7945;48.816;11.506;2023-04-24T07:26:30;13.20;99.90
15690;DHT22;7945;48.816;11.506;2023-04-24T07:28:57;13.30;99.90
15690;DHT22;7945;48.816;11.506;2023-04-24T07:31:24;13.30;99.90
15690;DHT22;7945;48.816;11.506;2023-04-24T07:33:51;13.30;99.90
15690;DHT22;7945;48.816;11.506;2023-04-24T07:36:17;13.40;99.90
15690;DHT22;7945;48.816;11.506;2023-04-24T07:38:45;13.40;99.90
15690;DHT22;7945;48.816;11.506;2023-04-24T07:41:13;13.40;99.90
15690;DHT22;7945;48.816;11.506;2023-04-24T07:43:40;13.30;99.90
15690;DHT22;7945;48.816;11.506;2023-04-24T07:46:07;13.30;99.90
15690;DHT22;7945;48.816;11.506;2023-04-24T07:48:35;13.30;99.90
15690;DHT22;7945;48.816;11.506;2023-04-24T07:51:01;13.10;99.90
15690;DHT22;7945;48.816;11.506;2023-04-24T07:53:28;13.00;99.90
15690;DHT22;7945;48.816;11.506;2023-04-24T07:55:55;12.80;99.90
15690;DHT22;7945;48.816;11.506;2023-04-24T07:58:24;12.60;99.90
15690;DHT22;7945;48.816;11.506;2023-04-24T08:00:51;12.40;99.90
15690;DHT22;7945;48.816;11.506;2023-04-24T08:03:17;12.30;99.90
15690;DHT22;7945;48.816;11.506;2023-04-24T08:05:45;12.20;99.90
15690;DHT22;7945;48.816;11.506;2023-04-24T08:08:12;12.10;99.90
15690;DHT22;7945;48.816;11.506;2023-04-24T08:10:39;12.00;99.90
15690;DHT22;7945;48.816;11.506;2023-04-24T08:13:06;11.90;99.90
15690;DHT22;7945;48.816;11.506;2023-04-24T08:15:34;11.80;99.90
15690;DHT22;7945;48.816;11.506;2023-04-24T08:18:01;11.80;99.90
15690;DHT22;7945;48.816;11.506;2023-04-24T08:20:27;11.80;99.90
15690;DHT22;7945;48.816;11.506;2023-04-24T08:22:54;11.80;99.90
15690;DHT22;7945;48.816;11.506;2023-04-24T08:25:22;11.90;99.90
15690;DHT22;7945;48.816;11.506;2023-04-24T08:27:50;12.00;99.90
15690;DHT22;7945;48.816;11.506;2023-04-24T08:30:17;12.10;99.90
15690;DHT22;7945;48.816;11.506;2023-04-24T08:32:45;12.10;99.90
15690;DHT22;7945;48.816;11.506;2023-04-24T08:35:12;12.10;99.90
15690;DHT22;7945;48.816;11.506;2023-04-24T08:37:38;12.10;99.90
15690;DHT22;7945;48.816;11.506;2023-04-24T08:40:10;12.20;99.90
15690;DHT22;7945;48.816;11.506;2023-04-24T08:42:38;12.30;99.90
15690;DHT22;7945;48.816;11.506;2023-04-24T08:45:06;12.30;99.90
15690;DHT22;7945;48.816;11.506;2023-04-24T08:47:35;12.30;99.90
15690;DHT22;7945;48.816;11.506;2023-04-24T08:50:04;12.40;99.90
15690;DHT22;7945;48.816;11.506;2023-04-24T08:52:32;12.40;99.90
15690;DHT22;7945;48.816;11.506;2023-04-24T08:55:00;12.50;99.90
15690;DHT22;7945;48.816;11.506;2023-04-24T08:57:27;12.60;99.90
15690;DHT22;7945;48.816;11.506;2023-04-24T08:59:54;12.60;99.90
15690;DHT22;7945;48.816;11.506;2023-04-24T09:02:23;12.70;99.90
15690;DHT22;7945;48.816;11.506;2023-04-24T09:04:50;12.90;99.90
15690;DHT22;7945;48.816;11.506;2023-04-24T09:07:19;13.10;99.90
15690;DHT22;7945;48.816;11.506;2023-04-24T09:09:46;13.20;99.90
15690;DHT22;7945;48.816;11.506;2023-04-24T09:12:14;13.40;99.90
15690;DHT22;7945;48.816;11.506;2023-04-24T09:14:40;13.50;99.90
15690;DHT22;7945;48.816;11.506;2023-04-24T09:17:10;13.60;99.90
15690;DHT22;7945;48.816;11.506;2023-04-24T09:19:37;13.70;99.90
15690;DHT22;7945;48.816;11.506;2023-04-24T09:22:05;13.70;99.90
15690;DHT22;7945;48.816;11.506;2023-04-24T09:24:34;13.70;99.90
15690;DHT22;7945;48.816;11.506;2023-04-24T09:27:01;13.70;99.90
15690;DHT22;7945;48.816;11.506;2023-04-24T09:29:28;13.70;99.90
15690;DHT22;7945;48.816;11.506;2023-04-24T09:31:55;13.80;99.90
15690;DHT22;7945;48.816;11.506;2023-04-24T09:34:23;13.80;99.90
15690;DHT22;7945;48.816;11.506;2023-04-24T09:36:50;13.80;99.90
15690;DHT22;7945;48.816;11.506;2023-04-24T09:39:18;13.70;99.90
15690;DHT22;7945;48.816;11.506;2023-04-24T09:41:48;13.70;99.90
15690;DHT22;7945;48.816;11.506;2023-04-24T09:44:18;13.70;99.90
15690;DHT22;7945;48.816;11.506;2023-04-24T09:46:51;13.60;99.90
15690;DHT22;7945;48.816;11.506;2023-04-24T09:49:23;13.50;99.90
15690;DHT22;7945;48.816;11.506;2023-04-24T09:51:50;13.60;99.90
15690;DHT22;7945;48.816;11.506;2023-04-24T09:54:19;13.60;99.90
15690;DHT22;7945;48.816;11.506;2023-04-24T09:56:49;13.60;99.90
15690;DHT22;7945;48.816;11.506;2023-04-24T09:59:17;13.60;99.90
15690;DHT22;7945;48.816;11.506;2023-04-24T10:01:44;13.60;99.90
15690;DHT22;7945;48.816;11.506;2023-04-24T10:04:19;13.60;99.90
15690;DHT22;7945;48.816;11.506;2023-04-24T10:06:47;13.70;99.90
15690;DHT22;7945;48.816;11.506;2023-04-24T10:09:15;13.60;99.90
15690;DHT22;7945;48.816;11.506;2023-04-24T10:11:43;13.70;99.90
15690;DHT22;7945;48.816;11.506;2023-04-24T10:14:13;13.70;99.90
15690;DHT22;7945;48.816;11.506;2023-04-24T10:16:40;13.70;99.90
15690;DHT22;7945;48.816;11.506;2023-04-24T10:19:08;13.90;99.90
15690;DHT22;7945;48.816;11.506;2023-04-24T10:21:35;14.20;99.90
15690;DHT22;7945;48.816;11.506;2023-04-24T10:24:03;14.40;99.60
15690;DHT22;7945;48.816;11.506;2023-04-24T10:26:31;14.60;99.20
15690;DHT22;7945;48.816;11.506;2023-04-24T10:28:59;14.80;99.30
15690;DHT22;7945;48.816;11.506;2023-04-24T10:31:28;14.80;98.60
15690;DHT22;7945;48.816;11.506;2023-04-24T10:33:58;14.60;97.60
15690;DHT22;7945;48.816;11.506;2023-04-24T10:36:27;14.40;98.00
15690;DHT22;7945;48.816;11.506;2023-04-24T10:38:56;14.20;99.00
15690;DHT22;7945;48.816;11.506;2023-04-24T10:41:25;14.10;99.90
15690;DHT22;7945;48.816;11.506;2023-04-24T10:44:04;13.60;99.90
15690;DHT22;7945;48.816;11.506;2023-04-24T10:46:33;13.00;99.90
15690;DHT22;7945;48.816;11.506;2023-04-24T10:49:04;12.60;99.90
15690;DHT22;7945;48.816;11.506;2023-04-24T10:51:47;12.40;99.90
15690;DHT22;7945;48.816;11.506;2023-04-24T10:54:25;12.30;99.90
15690;DHT22;7945;48.816;11.506;2023-04-24T10:56:52;12.40;99.90
15690;DHT22;7945;48.816;11.506;2023-04-24T10:59:25;12.40;99.90
15690;DHT22;7945;48.816;11.506;2023-04-24T11:01:54;12.60;99.90
15690;DHT22;7945;48.816;11.506;2023-04-24T11:04:32;12.80;99.90
15690;DHT22;7945;48.816;11.506;2023-04-24T11:07:00;13.00;99.90
15690;DHT22;7945;48.816;11.506;2023-04-24T11:09:28;13.10;99.90
15690;DHT22;7945;48.816;11.506;2023-04-24T11:12:04;13.30;99.90
15690;DHT22;7945;48.816;11.506;2023-04-24T11:17:38;13.70;99.90
15690;DHT22;7945;48.816;11.506;2023-04-24T11:20:07;14.00;99.90
15690;DHT22;7945;48.816;11.506;2023-04-24T11:22:36;14.10;99.90
15690;DHT22;7945;48.816;11.506;2023-04-24T11:25:05;14.30;99.90
15690;DHT22;7945;48.816;11.506;2023-04-24T11:27:39;14.30;99.90
15690;DHT22;7945;48.816;11.506;2023-04-24T11:30:07;14.40;99.90
15690;DHT22;7945;48.816;11.506;2023-04-24T11:32:40;14.40;99.90
15690;DHT22;7945;48.816;11.506;2023-04-24T11:35:14;14.30;99.90
15690;DHT22;7945;48.816;11.506;2023-04-24T11:37:43;14.30;99.90
15690;DHT22;7945;48.816;11.506;2023-04-24T11:40:13;14.40;99.90
15690;DHT22;7945;48.816;11.506;2023-04-24T11:42:42;14.60;99.90
15690;DHT22;7945;48.816;11.506;2023-04-24T11:45:11;14.80;99.90
15690;DHT22;7945;48.816;11.506;2023-04-24T11:47:40;15.00;99.90
15690;DHT22;7945;48.816;11.506;2023-04-24T11:50:09;15.10;99.90
15690;DHT22;7945;48.816;11.506;2023-04-24T11:52:38;14.90;99.20
15690;DHT22;7945;48.816;11.506;2023-04-24T11:55:07;14.70;99.60
15690;DHT22;7945;48.816;11.506;2023-04-24T11:57:34;14.50;99.30
15690;DHT22;7945;48.816;11.506;2023-04-24T12:00:03;14.50;99.50
15690;DHT22;7945;48.816;11.506;2023-04-24T12:02:31;14.60;98.60
15690;DHT22;7945;48.816;11.506;2023-04-24T12:04:59;14.70;97.10
15690;DHT22;7945;48.816;11.506;2023-04-24T12:07:27;15.00;98.10
15690;DHT22;7945;48.816;11.506;2023-04-24T12:09:57;15.10;96.70
15690;DHT22;7945;48.816;11.506;2023-04-24T12:12:26;15.20;96.80
15690;DHT22;7945;48.816;11.506;2023-04-24T12:14:55;15.10;96.20
15690;DHT22;7945;48.816;11.506;2023-04-24T12:17:28;15.10;96.80
15690;DHT22;7945;48.816;11.506;2023-04-24T12:20:01;15.10;95.00
15690;DHT22;7945;48.816;11.506;2023-04-24T12:22:43;15.20;95.40
15690;DHT22;7945;48.816;11.506;2023-04-24T12:25:11;15.20;95.40
15690;DHT22;7945;48.816;11.506;2023-04-24T12:27:38;15.10;95.10
15690;DHT22;7945;48.816;11.506;2023-04-24T12:30:09;15.10;95.10
15690;DHT22;7945;48.816;11.506;2023-04-24T12:32:41;15.00;94.60
15690;DHT22;7945;48.816;11.506;2023-04-24T12:35:10;15.10;95.10
15690;DHT22;7945;48.816;11.506;2023-04-24T12:37:37;15.30;94.10
15690;DHT22;7945;48.816;11.506;2023-04-24T12:40:07;15.40;94.10
15690;DHT22;7945;48.816;11.506;2023-04-24T12:42:36;15.30;92.50
15690;DHT22;7945;48.816;11.506;2023-04-24T12:45:08;15.20;92.40
15690;DHT22;7945;48.816;11.506;2023-04-24T12:47:38;15.10;92.40
15690;DHT22;7945;48.816;11.506;2023-04-24T12:50:06;15.00;92.70
15690;DHT22;7945;48.816;11.506;2023-04-24T12:52:35;15.00;93.10
15690;DHT22;7945;48.816;11.506;2023-04-24T12:55:04;15.00;92.80
15690;DHT22;7945;48.816;11.506;2023-04-24T12:57:34;15.00;93.50
15690;DHT22;7945;48.816;11.506;2023-04-24T13:00:02;15.10;92.10
15690;DHT22;7945;48.816;11.506;2023-04-24T13:02:30;15.30;92.50
15690;DHT22;7945;48.816;11.506;2023-04-24T13:04:57;15.30;91.80
15690;DHT22;7945;48.816;11.506;2023-04-24T13:07:26;15.20;92.40
15690;DHT22;7945;48.816;11.506;2023-04-24T13:09:55;15.10;92.20
15690;DHT22;7945;48.816;11.506;2023-04-24T13:12:23;15.00;92.40
15690;DHT22;7945;48.816;11.506;2023-04-24T13:14:51;14.90;92.00
15690;DHT22;7945;48.816;11.506;2023-04-24T13:17:18;14.70;91.70
15690;DHT22;7945;48.816;11.506;2023-04-24T13:19:45;14.70;93.10
15690;DHT22;7945;48.816;11.506;2023-04-24T13:22:13;14.50;92.00
15690;DHT22;7945;48.816;11.506;2023-04-24T13:24:40;14.50;91.90
15690;DHT22;7945;48.816;11.506;2023-04-24T13:27:09;14.50;92.10
15690;DHT22;7945;48.816;11.506;2023-04-24T13:29:36;14.60;90.90
15690;DHT22;7945;48.816;11.506;2023-04-24T13:32:03;14.50;90.40
15690;DHT22;7945;48.816;11.506;2023-04-24T13:34:31;14.50;90.70
15690;DHT22;7945;48.816;11.506;2023-04-24T13:36:58;14.60;90.90
15690;DHT22;7945;48.816;11.506;2023-04-24T13:39:25;14.80;91.70
15690;DHT22;7945;48.816;11.506;2023-04-24T13:41:53;15.00;91.40
15690;DHT22;7945;48.816;11.506;2023-04-24T13:44:22;15.20;91.40
15690;DHT22;7945;48.816;11.506;2023-04-24T13:46:51;15.20;91.40
15690;DHT22;7945;48.816;11.506;2023-04-24T13:49:20;15.10;90.30
15690;DHT22;7945;48.816;11.506;2023-04-24T13:51:48;15.10;91.20
15690;DHT22;7945;48.816;11.506;2023-04-24T13:54:15;15.10;91.40
15690;DHT22;7945;48.816;11.506;2023-04-24T13:56:43;15.10;91.00
15690;DHT22;7945;48.816;11.506;2023-04-24T13:59:11;15.10;92.80
15690;DHT22;7945;48.816;11.506;2023-04-24T14:01:40;15.10;91.30
15690;DHT22;7945;48.816;11.506;2023-04-24T14:04:07;15.10;90.80
15690;DHT22;7945;48.816;11.506;2023-04-24T14:06:34;15.10;90.20
15690;DHT22;7945;48.816;11.506;2023-04-24T14:09:01;15.00;90.50
15690;DHT22;7945;48.816;11.506;2023-04-24T14:11:29;15.00;90.40
15690;DHT22;7945;48.816;11.506;2023-04-24T14:13:56;15.00;90.60
15690;DHT22;7945;48.816;11.506;2023-04-24T14:16:23;15.00;90.40
15690;DHT22;7945;48.816;11.506;2023-04-24T14:18:51;15.10;89.70
15690;DHT22;7945;48.816;11.506;2023-04-24T14:21:18;15.10;89.30
15690;DHT22;7945;48.816;11.506;2023-04-24T14:23:46;15.10;89.30
15690;DHT22;7945;48.816;11.506;2023-04-24T14:26:14;15.00;89.40
15690;DHT22;7945;48.816;11.506;2023-04-24T14:28:41;15.00;90.90
15690;DHT22;7945;48.816;11.506;2023-04-24T14:31:08;15.00;90.20
15690;DHT22;7945;48.816;11.506;2023-04-24T14:33:36;15.00;91.20
15690;DHT22;7945;48.816;11.506;2023-04-24T14:36:04;15.00;91.20
15690;DHT22;7945;48.816;11.506;2023-04-24T14:38:32;15.00;91.30
15690;DHT22;7945;48.816;11.506;2023-04-24T14:40:59;14.90;90.70
15690;DHT22;7945;48.816;11.506;2023-04-24T14:43:27;14.80;91.70
15690;DHT22;7945;48.816;11.506;2023-04-24T14:45:54;14.70;90.30
15690;DHT22;7945;48.816;11.506;2023-04-24T14:48:21;14.60;90.40
15690;DHT22;7945;48.816;11.506;2023-04-24T14:50:48;14.40;90.40
15690;DHT22;7945;48.816;11.506;2023-04-24T14:53:17;14.20;90.40
15690;DHT22;7945;48.816;11.506;2023-04-24T14:55:44;14.00;91.20
15690;DHT22;7945;48.816;11.506;2023-04-24T14:58:11;14.00;92.00
15690;DHT22;7945;48.816;11.506;2023-04-24T15:00:38;14.00;92.30
15690;DHT22;7945;48.816;11.506;2023-04-24T15:03:06;14.00;92.00
15690;DHT22;7945;48.816;11.506;2023-04-24T15:05:34;13.90;91.80
15690;DHT22;7945;48.816;11.506;2023-04-24T15:08:01;14.00;92.00
15690;DHT22;7945;48.816;11.506;2023-04-24T15:10:29;14.10;92.30
15690;DHT22;7945;48.816;11.506;2023-04-24T15:12:57;14.20;92.20
15690;DHT22;7945;48.816;11.506;2023-04-24T15:15:24;14.10;91.40
15690;DHT22;7945;48.816;11.506;2023-04-24T15:17:51;14.20;92.10
15690;DHT22;7945;48.816;11.506;2023-04-24T15:20:18;14.20;92.30
15690;DHT22;7945;48.816;11.506;2023-04-24T15:22:45;14.20;92.10
15690;DHT22;7945;48.816;11.506;2023-04-24T15:25:12;14.10;92.30
15690;DHT22;7945;48.816;11.506;2023-04-24T15:27:42;14.00;91.90
15690;DHT22;7945;48.816;11.506;2023-04-24T15:30:10;14.00;92.00
15690;DHT22;7945;48.816;11.506;2023-04-24T15:32:38;13.80;91.70
15690;DHT22;7945;48.816;11.506;2023-04-24T15:35:05;13.80;92.30
15690;DHT22;7945;48.816;11.506;2023-04-24T15:37:33;13.80;92.40